createdAt,value
2018-01-31T01:52:21.771Z,75.70
2018-01-31T01:54:19.019Z,76.10
2018-01-31T01:56:45.405Z,76.30
2018-01-31T01:59:12.262Z,76.40
2018-01-31T02:01:39.514Z,77.20
2018-01-31T02:04:06.747Z,75.60
2018-01-31T02:06:32.962Z,75.50
2018-01-31T02:08:59.823Z,76.00
2018-01-31T02:11:26.464Z,75.50
2018-01-31T02:13:53.569Z,76.40
2018-01-31T02:16:20.625Z,76.00
2018-01-31T02:18:47.804Z,76.00
2018-01-31T02:21:16.156Z,76.70
2018-01-31T02:23:42.948Z,76.70
2018-01-31T02:26:09.326Z,76.80
2018-01-31T02:28:36.265Z,75.90
2018-01-31T02:31:03.349Z,76.30
2018-01-31T02:33:29.637Z,76.30
2018-01-31T02:35:56.702Z,78.20
2018-01-31T02:38:35.446Z,78.20
2018-01-31T02:41:01.837Z,77.00
2018-01-31T02:43:29.464Z,77.10
2018-01-31T02:45:55.747Z,76.90
2018-01-31T02:48:22.002Z,77.60
2018-01-31T02:50:50.178Z,77.80
2018-01-31T02:53:17.232Z,77.00
2018-01-31T02:55:43.685Z,77.00
2018-01-31T02:58:09.911Z,77.70
2018-01-31T03:00:36.778Z,78.40
2018-01-31T03:03:04.269Z,77.60
2018-01-31T03:05:30.867Z,77.60
2018-01-31T03:07:57.849Z,76.90
2018-01-31T03:10:24.401Z,76.90
2018-01-31T03:12:51.931Z,77.10
2018-01-31T03:15:18.806Z,77.10
2018-01-31T03:17:45.044Z,76.70
2018-01-31T03:20:12.619Z,77.70
2018-01-31T03:22:38.929Z,77.70
2018-01-31T03:25:05.667Z,77.80
2018-01-31T03:27:31.863Z,77.40
2018-01-31T03:29:58.072Z,77.40
2018-01-31T03:32:25.572Z,78.40
2018-01-31T03:34:51.790Z,78.40
2018-01-31T03:37:18.321Z,79.10
2018-01-31T03:39:45.360Z,78.10
2018-01-31T03:42:11.654Z,78.10
2018-01-31T03:44:38.633Z,77.70
2018-01-31T03:47:04.986Z,78.90
2018-01-31T03:49:31.209Z,78.10
2018-01-31T03:51:57.419Z,77.80
2018-01-31T03:54:24.277Z,77.50
2018-01-31T03:56:50.494Z,77.50
2018-01-31T03:59:16.682Z,77.10
2018-01-31T04:01:42.871Z,77.10
2018-01-31T04:04:09.080Z,77.90
2018-01-31T04:06:36.716Z,77.80
2018-01-31T04:09:03.895Z,77.40
2018-01-31T04:11:30.978Z,77.40
2018-01-31T04:13:57.217Z,77.40
2018-01-31T04:16:24.110Z,77.30
2018-01-31T04:18:51.348Z,76.90
2018-01-31T04:21:18.088Z,76.80
2018-01-31T04:23:44.880Z,76.90
2018-01-31T04:26:11.621Z,77.00
2018-01-31T04:28:38.390Z,77.30
2018-01-31T04:31:04.955Z,77.00
2018-01-31T04:33:31.170Z,77.90
2018-01-31T04:35:57.481Z,77.80
2018-01-31T04:38:25.984Z,79.00
2018-01-31T04:40:53.082Z,79.00
2018-01-31T04:43:19.785Z,79.70
2018-01-31T04:45:46.638Z,79.50
2018-01-31T04:48:12.835Z,79.00
2018-01-31T04:50:39.082Z,78.70
2018-01-31T04:53:05.303Z,78.00
2018-01-31T04:55:31.537Z,78.70
2018-01-31T04:57:58.230Z,78.40
2018-01-31T05:00:25.711Z,77.90
2018-01-31T05:02:53.112Z,78.10
2018-01-31T05:05:20.130Z,78.00
2018-01-31T05:07:46.619Z,77.90
2018-01-31T05:10:13.478Z,77.50
2018-01-31T05:12:40.444Z,78.50
2018-01-31T05:15:06.727Z,78.50
2018-01-31T05:17:33.100Z,78.90
2018-01-31T05:20:00.354Z,78.20
2018-01-31T05:22:26.586Z,77.90
2018-01-31T05:24:52.797Z,77.90
2018-01-31T05:27:19.760Z,79.10
2018-01-31T05:29:46.427Z,79.00
2018-01-31T05:32:12.809Z,79.70
2018-01-31T05:34:39.363Z,79.20
2018-01-31T05:37:06.420Z,79.60
2018-01-31T05:39:33.207Z,79.50
2018-01-31T05:41:59.491Z,79.30
2018-01-31T05:44:26.992Z,78.80
2018-01-31T05:46:53.798Z,78.90
2018-01-31T05:49:21.152Z,78.60
2018-01-31T05:51:47.969Z,78.50
2018-01-31T05:54:15.210Z,78.60
2018-01-31T05:56:42.127Z,79.40
2018-01-31T05:59:08.408Z,79.40
2018-01-31T06:01:34.627Z,79.50
2018-01-31T06:04:00.841Z,79.20
2018-01-31T06:06:27.865Z,80.30
2018-01-31T06:08:54.579Z,80.20
2018-01-31T06:11:21.990Z,81.30
2018-01-31T06:13:48.896Z,81.20
2018-01-31T06:16:16.069Z,81.70
2018-01-31T06:18:43.708Z,81.30
2018-01-31T06:21:09.923Z,81.30
2018-01-31T06:23:36.127Z,80.30
2018-01-31T06:26:03.050Z,80.70
2018-01-31T06:28:36.977Z,80.60
2018-01-31T06:31:03.229Z,80.50
2018-01-31T06:33:30.058Z,80.90
2018-01-31T06:35:56.491Z,80.50
2018-01-31T06:38:23.634Z,80.60
2018-01-31T06:40:50.772Z,79.90
2018-01-31T06:43:17.193Z,79.90
2018-01-31T06:45:44.285Z,80.20
2018-01-31T06:48:10.515Z,80.20
2018-01-31T06:50:37.427Z,79.80
2018-01-31T06:53:04.143Z,79.40
2018-01-31T06:55:30.972Z,79.40
2018-01-31T06:57:57.283Z,79.20
2018-01-31T07:00:23.586Z,79.60
2018-01-31T07:02:49.797Z,79.30
2018-01-31T07:05:16.430Z,78.80
2018-01-31T07:07:44.032Z,80.10
2018-01-31T07:10:11.124Z,80.00
2018-01-31T07:12:37.320Z,80.00
2018-01-31T07:15:04.524Z,80.60
2018-01-31T07:17:30.799Z,80.90
2018-01-31T07:19:57.251Z,81.30
2018-01-31T07:22:24.209Z,80.00
2018-01-31T07:24:50.995Z,79.90
2018-01-31T07:27:17.224Z,79.70
2018-01-31T07:29:44.161Z,80.10
2018-01-31T07:32:10.378Z,80.00
2018-01-31T07:34:37.232Z,80.70
2018-01-31T07:37:03.487Z,81.00
2018-01-31T07:39:29.743Z,80.90
2018-01-31T07:41:56.483Z,82.10
2018-01-31T07:44:23.028Z,82.10
2018-01-31T07:46:50.250Z,81.70
2018-01-31T07:49:17.218Z,82.40
2018-01-31T07:51:43.580Z,82.30
2018-01-31T07:54:09.780Z,81.60
2018-01-31T07:56:36.011Z,80.90
2018-01-31T07:59:02.729Z,80.20
2018-01-31T08:01:29.706Z,80.20
2018-01-31T08:03:56.303Z,80.10
2018-01-31T08:06:23.569Z,80.50
2018-01-31T08:08:51.045Z,80.50
2018-01-31T08:11:17.528Z,80.50
2018-01-31T08:13:44.672Z,79.80
2018-01-31T08:16:11.772Z,80.10
2018-01-31T08:18:38.406Z,80.10
2018-01-31T08:21:05.561Z,80.30
2018-01-31T08:23:32.737Z,80.40
2018-01-31T08:25:59.040Z,80.10
2018-01-31T08:28:26.259Z,80.00
2018-01-31T08:30:53.245Z,80.00
2018-01-31T08:33:19.463Z,79.90
2018-01-31T08:35:45.813Z,80.00
2018-01-31T08:38:12.116Z,80.00
2018-01-31T08:40:39.294Z,80.00
2018-01-31T08:43:06.011Z,79.80
2018-01-31T08:45:32.778Z,79.80
2018-01-31T08:47:59.573Z,79.20
2018-01-31T08:50:25.966Z,79.00
2018-01-31T08:52:52.237Z,79.20
2018-01-31T08:55:18.466Z,79.00
2018-01-31T08:57:45.044Z,78.40
2018-01-31T09:00:12.042Z,78.90
2018-01-31T09:02:39.196Z,77.80
2018-01-31T09:05:05.968Z,77.80
2018-01-31T09:07:33.908Z,77.80
2018-01-31T09:10:00.425Z,77.80
2018-01-31T09:12:27.427Z,77.30
2018-01-31T09:14:53.613Z,77.30
2018-01-31T09:17:19.850Z,77.10
2018-01-31T09:19:46.137Z,76.90
2018-01-31T09:22:12.634Z,73.20
2018-01-31T09:24:39.624Z,72.00
2018-01-31T09:27:06.143Z,71.90
2018-01-31T09:29:33.196Z,70.00
2018-01-31T09:32:00.038Z,70.00
2018-01-31T09:34:26.409Z,70.60
2018-01-31T09:36:53.419Z,68.40
2018-01-31T09:39:19.696Z,68.40
2018-01-31T09:41:46.547Z,72.20
2018-01-31T09:44:12.914Z,69.10
2018-01-31T09:46:39.778Z,69.20
2018-01-31T09:49:06.862Z,67.80
2018-01-31T09:51:33.171Z,67.80
2018-01-31T09:54:00.810Z,67.30
2018-01-31T09:56:27.774Z,68.20
2018-01-31T09:58:54.726Z,66.90
2018-01-31T10:01:21.352Z,66.90
2018-01-31T10:03:48.953Z,66.30
2018-01-31T10:08:49.333Z,66.50
2018-01-31T10:11:15.611Z,67.00
2018-01-31T10:13:41.919Z,65.10
2018-01-31T10:16:09.070Z,64.60
2018-01-31T10:18:35.944Z,64.50
2018-01-31T10:21:02.146Z,64.20
2018-01-31T10:23:28.900Z,63.60
2018-01-31T10:25:56.307Z,64.20
2018-01-31T10:28:24.214Z,63.10
2018-01-31T10:30:50.506Z,63.10
2018-01-31T10:33:17.782Z,64.30
2018-01-31T10:35:43.946Z,63.40
2018-01-31T10:38:10.810Z,64.40
2018-01-31T10:40:38.073Z,64.30
2018-01-31T10:43:05.240Z,62.50
2018-01-31T10:45:33.418Z,62.90
2018-01-31T10:48:01.586Z,62.60
2018-01-31T10:50:28.878Z,61.50
2018-01-31T10:52:55.698Z,61.50
2018-01-31T10:57:28.486Z,61.20
2018-01-31T10:57:48.170Z,59.90
2018-01-31T11:00:14.411Z,59.90
2018-01-31T11:02:41.590Z,61.80
2018-01-31T11:05:07.974Z,60.90
2018-01-31T11:07:35.725Z,61.60
2018-01-31T11:10:03.100Z,59.70
2018-01-31T11:12:29.321Z,61.50
2018-01-31T11:14:55.570Z,60.70
2018-01-31T11:17:23.141Z,58.80
2018-01-31T11:19:49.625Z,58.90
2018-01-31T11:22:16.677Z,58.90
2018-01-31T11:24:42.896Z,58.80
2018-01-31T11:27:09.145Z,60.30
2018-01-31T11:29:35.906Z,58.70
2018-01-31T11:32:03.145Z,58.00
2018-01-31T11:34:29.745Z,58.20
2018-01-31T11:36:56.510Z,57.80
2018-01-31T11:39:24.198Z,57.10
2018-01-31T11:41:50.496Z,57.10
2018-01-31T11:44:16.958Z,57.50
2018-01-31T11:46:43.300Z,56.90
2018-01-31T11:49:09.500Z,57.40
2018-01-31T11:51:35.757Z,57.50
2018-01-31T11:54:01.970Z,58.70
2018-01-31T11:56:28.219Z,58.60
2018-01-31T11:58:54.441Z,56.10
2018-01-31T12:01:20.660Z,55.70
2018-01-31T12:03:46.904Z,56.30
2018-01-31T12:06:13.787Z,55.90
2018-01-31T12:08:40.062Z,55.40
2018-01-31T12:11:06.280Z,55.70
2018-01-31T12:14:10.900Z,55.90
2018-01-31T12:16:50.110Z,54.70
2018-01-31T12:19:25.193Z,54.70
2018-01-31T12:21:52.039Z,55.10
2018-01-31T12:24:30.700Z,55.20
2018-01-31T12:27:09.123Z,56.60
2018-01-31T12:29:54.792Z,55.50
2018-01-31T12:32:34.082Z,54.70
2018-01-31T12:35:13.697Z,53.30
2018-01-31T12:37:52.989Z,53.30
2018-01-31T12:40:19.676Z,53.30
2018-01-31T12:42:46.196Z,54.70
2018-01-31T12:45:12.286Z,50.90
2018-01-31T12:48:01.799Z,51.50
2018-01-31T12:50:40.329Z,52.50
2018-01-31T12:53:18.681Z,52.40
2018-01-31T12:55:57.575Z,51.40
2018-01-31T12:58:36.156Z,52.50
2018-01-31T13:01:14.642Z,52.10
2018-01-31T13:03:54.041Z,52.20
2018-01-31T13:06:32.449Z,52.50
2018-01-31T13:09:10.945Z,50.80
2018-01-31T13:11:50.523Z,50.60
2018-01-31T13:14:29.827Z,52.40
2018-01-31T13:17:08.543Z,52.40
2018-01-31T13:19:48.014Z,51.20
2018-01-31T13:22:27.037Z,51.20
2018-01-31T13:28:17.723Z,50.20
2018-01-31T13:31:14.951Z,50.10
2018-01-31T13:33:55.182Z,51.20
2018-01-31T13:36:33.547Z,51.20
2018-01-31T13:39:12.819Z,50.30
2018-01-31T13:41:53.132Z,50.30
2018-01-31T13:44:45.302Z,50.60
2018-01-31T13:47:24.097Z,50.70
2018-01-31T13:50:17.181Z,50.30
2018-01-31T13:52:55.599Z,50.30
2018-01-31T13:55:33.987Z,50.50
2018-01-31T13:58:12.308Z,50.60
2018-01-31T14:00:50.771Z,50.00
2018-01-31T14:03:29.580Z,49.80
2018-01-31T14:06:19.744Z,49.40
2018-01-31T14:08:58.350Z,49.70
2018-01-31T14:11:36.981Z,49.70
2018-01-31T14:14:15.902Z,49.40
2018-01-31T14:16:55.357Z,50.00
2018-01-31T14:19:33.922Z,50.00
2018-01-31T14:22:13.062Z,50.20
2018-01-31T14:25:01.096Z,51.30
2018-01-31T14:27:39.641Z,51.90
2018-01-31T14:30:18.074Z,51.40
2018-01-31T14:32:56.380Z,52.40
2018-01-31T14:35:34.871Z,51.90
2018-01-31T14:38:01.738Z,51.30
2018-01-31T14:40:29.250Z,51.70
2018-01-31T14:42:55.281Z,51.70
2018-01-31T14:45:21.711Z,51.80
2018-01-31T14:47:48.424Z,51.90
2018-01-31T14:50:15.040Z,52.40
2018-01-31T14:52:42.084Z,52.60
2018-01-31T14:55:08.132Z,52.60
2018-01-31T14:57:34.455Z,52.30
2018-01-31T15:00:00.646Z,52.10
2018-01-31T15:02:26.700Z,52.20
2018-01-31T15:04:52.725Z,52.80
2018-01-31T15:07:19.327Z,53.20
2018-01-31T15:09:45.382Z,53.30
2018-01-31T15:12:11.395Z,53.10
2018-01-31T15:14:37.422Z,53.40
2018-01-31T15:17:03.829Z,53.00
2018-01-31T15:19:30.678Z,53.70
2018-01-31T15:21:56.815Z,53.70
2018-01-31T15:24:23.819Z,53.80
2018-01-31T15:26:49.869Z,53.70
2018-01-31T15:29:15.912Z,53.90
2018-01-31T15:31:42.048Z,53.80
2018-01-31T15:34:08.781Z,54.00
2018-01-31T15:36:35.770Z,53.90
2018-01-31T15:39:02.194Z,54.10
2018-01-31T15:41:29.091Z,54.10
2018-01-31T15:43:55.625Z,54.10
2018-01-31T15:46:22.435Z,54.80
2018-01-31T15:48:48.422Z,54.80
2018-01-31T15:51:14.634Z,54.80
2018-01-31T15:53:40.637Z,54.80
2018-01-31T15:56:06.917Z,54.80
2018-01-31T15:58:33.305Z,54.80
2018-01-31T16:00:59.343Z,54.80
2018-01-31T16:03:25.928Z,55.30
2018-01-31T16:05:53.613Z,55.30
2018-01-31T16:08:20.719Z,55.60
2018-01-31T16:10:47.604Z,55.80
2018-01-31T16:13:14.855Z,55.60
2018-01-31T16:15:40.884Z,56.10
2018-01-31T16:18:07.251Z,55.80
2018-01-31T16:20:46.015Z,55.90
2018-01-31T16:23:12.923Z,55.90
2018-01-31T16:25:40.465Z,56.30
2018-01-31T16:28:19.235Z,56.20
2018-01-31T16:30:46.323Z,56.10
2018-01-31T16:33:25.104Z,56.00
2018-01-31T16:35:51.621Z,56.90
2018-01-31T16:38:19.690Z,58.10
2018-01-31T16:40:47.254Z,58.40
2018-01-31T16:43:14.240Z,58.80
2018-01-31T16:45:41.073Z,58.70
2018-01-31T16:48:07.787Z,59.90
2018-01-31T16:50:35.156Z,59.90
2018-01-31T16:53:01.397Z,59.30
2018-01-31T16:55:27.594Z,59.20
2018-01-31T16:57:53.802Z,59.00
2018-01-31T17:00:20.955Z,59.20
2018-01-31T17:02:47.977Z,59.50
2018-01-31T17:05:14.794Z,59.50
2018-01-31T17:07:41.547Z,59.70
2018-01-31T17:10:09.123Z,58.80
2018-01-31T17:12:35.390Z,58.80
2018-01-31T17:15:01.628Z,58.70
2018-01-31T17:17:27.921Z,59.50
2018-01-31T17:19:54.804Z,59.20
2018-01-31T17:22:20.992Z,59.00
2018-01-31T17:24:48.649Z,59.50
2018-01-31T17:27:14.957Z,59.50
2018-01-31T17:29:41.218Z,59.20
2018-01-31T17:32:08.194Z,60.10
2018-01-31T17:34:34.923Z,60.10
2018-01-31T17:37:01.182Z,61.00
2018-01-31T17:39:27.407Z,61.50
2018-01-31T17:41:54.088Z,62.20
2018-01-31T17:44:21.157Z,62.90
2018-01-31T17:46:48.175Z,62.10
2018-01-31T17:49:15.660Z,63.90
2018-01-31T17:51:42.490Z,63.90
2018-01-31T17:54:09.685Z,65.60
2018-01-31T17:56:36.725Z,67.10
2018-01-31T17:59:03.921Z,66.80
2018-01-31T18:01:31.164Z,66.80
2018-01-31T18:03:58.304Z,68.50
2018-01-31T18:06:25.715Z,68.40
2018-01-31T18:08:52.086Z,68.80
2018-01-31T18:11:18.927Z,68.30
2018-01-31T18:13:45.146Z,67.80
2018-01-31T18:16:11.669Z,68.60
2018-01-31T18:18:38.327Z,69.40
2018-01-31T18:21:06.330Z,69.40
2018-01-31T18:23:33.322Z,69.50
2018-01-31T18:26:00.540Z,69.40
2018-01-31T18:28:28.106Z,69.60
2018-01-31T18:30:55.295Z,69.60
2018-01-31T18:33:22.383Z,70.10
2018-01-31T18:35:49.375Z,69.00
2018-01-31T18:38:16.809Z,69.00
2018-01-31T18:40:43.887Z,68.10
2018-01-31T18:43:10.774Z,68.10
2018-01-31T18:45:37.216Z,67.90
2018-01-31T18:48:05.227Z,67.30
2018-01-31T18:50:31.446Z,67.30
2018-01-31T18:52:57.861Z,67.60
2018-01-31T18:55:24.162Z,67.70
2018-01-31T18:57:50.406Z,67.70
2018-01-31T19:00:17.893Z,67.40
2018-01-31T19:02:45.111Z,67.30
2018-01-31T19:05:12.329Z,67.30
2018-01-31T19:07:40.871Z,66.60
2018-01-31T19:10:07.254Z,66.50
2018-01-31T19:12:33.505Z,66.40
2018-01-31T19:15:00.225Z,66.60
2018-01-31T19:17:27.310Z,66.60
2018-01-31T19:19:53.554Z,66.50
2018-01-31T19:22:20.324Z,66.40
2018-01-31T19:24:47.659Z,66.40
2018-01-31T19:27:14.889Z,67.20
2018-01-31T19:29:41.593Z,66.20
2018-01-31T19:32:08.564Z,66.80
2018-01-31T19:34:34.937Z,66.80
2018-01-31T19:37:01.182Z,66.90
2018-01-31T19:39:27.609Z,67.70
2018-01-31T19:41:54.259Z,67.40
2018-01-31T19:44:21.447Z,67.30
2018-01-31T19:46:48.383Z,67.20
2018-01-31T19:49:16.107Z,67.80
2018-01-31T19:51:43.294Z,67.70
2018-01-31T19:54:10.240Z,67.60
2018-01-31T19:56:37.906Z,67.20
2018-01-31T19:59:05.381Z,65.90
2018-01-31T20:01:32.056Z,65.80
2018-01-31T20:03:59.318Z,66.00
2018-01-31T20:06:25.550Z,66.00
2018-01-31T20:08:51.766Z,67.00
2018-01-31T20:11:18.034Z,67.10
2018-01-31T20:13:44.984Z,66.80
2018-01-31T20:16:12.036Z,67.00
2018-01-31T20:18:38.260Z,67.00
2018-01-31T20:21:05.784Z,67.60
2018-01-31T20:23:32.803Z,67.60
2018-01-31T20:25:59.039Z,67.20
2018-01-31T20:28:26.985Z,68.20
2018-01-31T20:30:53.757Z,67.10
2018-01-31T20:33:20.060Z,68.00
2018-01-31T20:35:46.354Z,67.70
2018-01-31T20:38:13.339Z,68.70
2018-01-31T20:40:39.928Z,68.70
2018-01-31T20:43:07.915Z,69.20
2018-01-31T20:45:34.983Z,69.10
2018-01-31T20:48:01.203Z,69.10
2018-01-31T20:50:27.449Z,68.40
2018-01-31T20:52:53.690Z,69.10
2018-01-31T20:55:20.549Z,69.60
2018-01-31T20:57:46.943Z,69.90
2018-01-31T21:00:13.349Z,68.90
2018-01-31T21:02:40.074Z,69.20
2018-01-31T21:05:07.081Z,70.40
2018-01-31T21:07:33.432Z,70.40
2018-01-31T21:10:00.177Z,70.90
2018-01-31T21:12:27.268Z,70.20
2018-01-31T21:14:54.332Z,70.60
2018-01-31T21:17:21.203Z,70.40
2018-01-31T21:19:47.430Z,69.20
2018-01-31T21:22:14.312Z,70.40
2018-01-31T21:24:41.566Z,70.70
2018-01-31T21:27:08.320Z,70.60
2018-01-31T21:29:35.063Z,71.10
2018-01-31T21:32:01.279Z,69.70
2018-01-31T21:34:27.794Z,69.70
2018-01-31T21:36:55.390Z,70.40
2018-01-31T21:39:21.907Z,70.30
2018-01-31T21:41:48.654Z,69.60
2018-01-31T21:44:15.435Z,70.10
2018-01-31T21:46:41.695Z,71.60
2018-01-31T21:49:08.638Z,69.80
2018-01-31T21:51:35.654Z,71.00
2018-01-31T21:54:01.907Z,70.90
2018-01-31T21:56:28.388Z,72.40
2018-01-31T21:58:55.496Z,72.50
2018-01-31T22:01:22.518Z,71.30
2018-01-31T22:03:49.253Z,71.20
2018-01-31T22:06:15.455Z,70.40
2018-01-31T22:08:41.706Z,72.10
2018-01-31T22:11:09.157Z,71.40
2018-01-31T22:13:35.630Z,71.80
2018-01-31T22:16:02.685Z,70.50
2018-01-31T22:18:30.232Z,70.60
2018-01-31T22:20:57.798Z,71.50
2018-01-31T22:23:25.260Z,71.50
2018-01-31T22:25:53.607Z,70.80
2018-01-31T22:28:20.848Z,70.80
2018-01-31T22:30:47.185Z,71.40
2018-01-31T22:33:13.516Z,70.60
2018-01-31T22:35:40.511Z,72.90
2018-01-31T22:38:07.029Z,72.80
2018-01-31T22:40:34.806Z,72.80
2018-01-31T22:43:02.047Z,73.40
2018-01-31T22:45:29.621Z,72.10
2018-01-31T22:47:56.368Z,72.10
2018-01-31T22:50:23.210Z,71.70
2018-01-31T22:52:50.278Z,73.30
2018-01-31T22:55:16.655Z,73.30
2018-01-31T22:57:44.730Z,73.20
2018-01-31T23:00:11.791Z,73.60
2018-01-31T23:02:38.539Z,73.60
2018-01-31T23:05:05.548Z,72.80
2018-01-31T23:07:31.741Z,71.80
2018-01-31T23:09:58.210Z,73.00
2018-01-31T23:12:25.205Z,75.50
2018-01-31T23:14:52.259Z,75.50
2018-01-31T23:17:24.875Z,75.70
2018-01-31T23:19:51.304Z,74.00
2018-01-31T23:22:17.987Z,72.70
2018-01-31T23:24:44.340Z,72.70
2018-01-31T23:27:10.731Z,72.40
2018-01-31T23:29:37.798Z,72.10
2018-01-31T23:32:04.001Z,72.10
2018-01-31T23:34:31.100Z,75.70
2018-01-31T23:36:57.296Z,75.70
2018-01-31T23:39:23.554Z,74.30
2018-01-31T23:41:49.783Z,74.70
2018-01-31T23:44:16.577Z,75.00
2018-01-31T23:46:43.345Z,76.50
2018-01-31T23:49:10.864Z,77.20
2018-01-31T23:51:38.379Z,76.00
2018-01-31T23:54:06.195Z,75.20
2018-01-31T23:56:34.240Z,74.00
2018-01-31T23:59:00.575Z,74.00
